sensor_id;sensor_type;location;lat;lon;timestamp;P1;durP1;ratioP1;P2;durP2;ratioP2
59416;SDS011;45222;52.458;20.914;2022-12-18T00:03:14;18.50;;;8.20;;
59416;SDS011;45222;52.458;20.914;2022-12-18T00:06:59;32.80;;;12.20;;
59416;SDS011;45222;52.458;20.914;2022-12-18T00:10:44;22.70;;;9.00;;
59416;SDS011;45222;52.458;20.914;2022-12-18T00:14:29;14.90;;;5.90;;
59416;SDS011;45222;52.458;20.914;2022-12-18T00:18:14;18.30;;;7.90;;
59416;SDS011;45222;52.458;20.914;2022-12-18T00:21:59;24.50;;;9.00;;
59416;SDS011;45222;52.458;20.914;2022-12-18T00:25:43;18.60;;;7.10;;
59416;SDS011;45222;52.458;20.914;2022-12-18T00:29:28;19.60;;;7.20;;
59416;SDS011;45222;52.458;20.914;2022-12-18T00:33:12;21.50;;;8.90;;
59416;SDS011;45222;52.458;20.914;2022-12-18T00:36:57;11.60;;;5.60;;
59416;SDS011;45222;52.458;20.914;2022-12-18T00:40:42;24.20;;;8.00;;
59416;SDS011;45222;52.458;20.914;2022-12-18T00:44:27;19.10;;;8.20;;
59416;SDS011;45222;52.458;20.914;2022-12-18T00:48:11;23.40;;;8.10;;
59416;SDS011;45222;52.458;20.914;2022-12-18T00:51:56;34.40;;;25.00;;
59416;SDS011;45222;52.458;20.914;2022-12-18T00:55:41;22.60;;;9.10;;
59416;SDS011;45222;52.458;20.914;2022-12-18T00:59:26;18.20;;;7.50;;
59416;SDS011;45222;52.458;20.914;2022-12-18T01:03:12;30.70;;;9.70;;
59416;SDS011;45222;52.458;20.914;2022-12-18T01:06:58;23.40;;;8.30;;
59416;SDS011;45222;52.458;20.914;2022-12-18T01:10:42;17.50;;;7.40;;
59416;SDS011;45222;52.458;20.914;2022-12-18T01:14:27;18.30;;;7.80;;
59416;SDS011;45222;52.458;20.914;2022-12-18T01:18:12;23.00;;;8.90;;
59416;SDS011;45222;52.458;20.914;2022-12-18T01:21:56;18.20;;;7.10;;
59416;SDS011;45222;52.458;20.914;2022-12-18T01:25:41;8.40;;;4.20;;
59416;SDS011;45222;52.458;20.914;2022-12-18T01:29:26;18.70;;;8.00;;
59416;SDS011;45222;52.458;20.914;2022-12-18T01:33:10;25.10;;;18.00;;
59416;SDS011;45222;52.458;20.914;2022-12-18T01:36:55;20.80;;;7.00;;
59416;SDS011;45222;52.458;20.914;2022-12-18T01:40:40;18.20;;;6.20;;
59416;SDS011;45222;52.458;20.914;2022-12-18T01:48:37;20.70;;;8.40;;
59416;SDS011;45222;52.458;20.914;2022-12-18T01:52:23;21.20;;;8.20;;
59416;SDS011;45222;52.458;20.914;2022-12-18T01:56:11;9.00;;;4.10;;
59416;SDS011;45222;52.458;20.914;2022-12-18T01:59:59;23.20;;;16.90;;
59416;SDS011;45222;52.458;20.914;2022-12-18T02:03:45;21.50;;;15.40;;
59416;SDS011;45222;52.458;20.914;2022-12-18T02:07:32;15.10;;;5.30;;
59416;SDS011;45222;52.458;20.914;2022-12-18T02:11:29;13.80;;;6.40;;
59416;SDS011;45222;52.458;20.914;2022-12-18T02:15:24;13.50;;;5.50;;
59416;SDS011;45222;52.458;20.914;2022-12-18T02:19:20;13.60;;;4.90;;
59416;SDS011;45222;52.458;20.914;2022-12-18T02:23:24;13.20;;;5.60;;
59416;SDS011;45222;52.458;20.914;2022-12-18T02:27:21;13.90;;;5.50;;
59416;SDS011;45222;52.458;20.914;2022-12-18T02:31:07;10.90;;;4.60;;
59416;SDS011;45222;52.458;20.914;2022-12-18T02:34:55;14.70;;;5.60;;
59416;SDS011;45222;52.458;20.914;2022-12-18T02:38:42;9.80;;;4.30;;
59416;SDS011;45222;52.458;20.914;2022-12-18T02:42:28;19.30;;;6.50;;
59416;SDS011;45222;52.458;20.914;2022-12-18T02:46:23;15.00;;;6.10;;
59416;SDS011;45222;52.458;20.914;2022-12-18T02:50:13;17.70;;;6.70;;
59416;SDS011;45222;52.458;20.914;2022-12-18T02:54:06;12.10;;;5.40;;
59416;SDS011;45222;52.458;20.914;2022-12-18T02:57:58;14.00;;;5.70;;
59416;SDS011;45222;52.458;20.914;2022-12-18T03:01:48;21.30;;;16.10;;
59416;SDS011;45222;52.458;20.914;2022-12-18T03:05:43;13.70;;;6.10;;
59416;SDS011;45222;52.458;20.914;2022-12-18T03:09:38;15.10;;;6.60;;
59416;SDS011;45222;52.458;20.914;2022-12-18T03:13:27;21.90;;;17.30;;
59416;SDS011;45222;52.458;20.914;2022-12-18T03:17:17;13.80;;;5.30;;
59416;SDS011;45222;52.458;20.914;2022-12-18T03:21:06;21.90;;;16.20;;
59416;SDS011;45222;52.458;20.914;2022-12-18T03:24:53;23.10;;;17.90;;
59416;SDS011;45222;52.458;20.914;2022-12-18T03:28:42;18.80;;;6.90;;
59416;SDS011;45222;52.458;20.914;2022-12-18T03:36:17;19.50;;;8.00;;
59416;SDS011;45222;52.458;20.914;2022-12-18T03:40:02;17.00;;;7.50;;
59416;SDS011;45222;52.458;20.914;2022-12-18T03:43:50;15.40;;;6.20;;
59416;SDS011;45222;52.458;20.914;2022-12-18T03:47:39;21.30;;;16.30;;
59416;SDS011;45222;52.458;20.914;2022-12-18T03:51:33;16.60;;;6.90;;
59416;SDS011;45222;52.458;20.914;2022-12-18T03:55:24;21.80;;;6.70;;
59416;SDS011;45222;52.458;20.914;2022-12-18T03:59:13;17.20;;;6.90;;
59416;SDS011;45222;52.458;20.914;2022-12-18T04:03:00;17.30;;;6.00;;
59416;SDS011;45222;52.458;20.914;2022-12-18T04:06:47;16.10;;;7.00;;
59416;SDS011;45222;52.458;20.914;2022-12-18T04:10:33;10.40;;;4.50;;
59416;SDS011;45222;52.458;20.914;2022-12-18T04:14:19;13.60;;;5.50;;
59416;SDS011;45222;52.458;20.914;2022-12-18T04:18:04;14.00;;;6.10;;
59416;SDS011;45222;52.458;20.914;2022-12-18T04:21:48;17.50;;;6.70;;
59416;SDS011;45222;52.458;20.914;2022-12-18T04:25:33;19.70;;;14.80;;
59416;SDS011;45222;52.458;20.914;2022-12-18T04:29:17;13.60;;;5.40;;
59416;SDS011;45222;52.458;20.914;2022-12-18T04:33:02;16.50;;;6.70;;
59416;SDS011;45222;52.458;20.914;2022-12-18T04:36:47;11.90;;;4.40;;
59416;SDS011;45222;52.458;20.914;2022-12-18T04:40:32;18.10;;;7.20;;
59416;SDS011;45222;52.458;20.914;2022-12-18T04:44:19;18.60;;;13.90;;
59416;SDS011;45222;52.458;20.914;2022-12-18T04:48:04;14.40;;;4.90;;
59416;SDS011;45222;52.458;20.914;2022-12-18T04:51:49;15.00;;;6.60;;
59416;SDS011;45222;52.458;20.914;2022-12-18T04:55:33;13.20;;;4.50;;
59416;SDS011;45222;52.458;20.914;2022-12-18T04:59:18;13.70;;;5.80;;
59416;SDS011;45222;52.458;20.914;2022-12-18T05:03:03;17.30;;;7.10;;
59416;SDS011;45222;52.458;20.914;2022-12-18T05:06:47;13.00;;;4.50;;
59416;SDS011;45222;52.458;20.914;2022-12-18T05:10:32;17.40;;;4.00;;
59416;SDS011;45222;52.458;20.914;2022-12-18T05:14:16;11.90;;;3.80;;
59416;SDS011;45222;52.458;20.914;2022-12-18T05:18:03;17.20;;;6.30;;
59416;SDS011;45222;52.458;20.914;2022-12-18T05:21:48;12.50;;;4.80;;
59416;SDS011;45222;52.458;20.914;2022-12-18T05:25:32;24.80;;;7.80;;
59416;SDS011;45222;52.458;20.914;2022-12-18T05:29:17;23.70;;;9.00;;
59416;SDS011;45222;52.458;20.914;2022-12-18T05:33:01;19.00;;;7.00;;
59416;SDS011;45222;52.458;20.914;2022-12-18T05:36:46;16.20;;;6.20;;
59416;SDS011;45222;52.458;20.914;2022-12-18T05:40:31;26.30;;;11.50;;
59416;SDS011;45222;52.458;20.914;2022-12-18T05:44:15;31.10;;;11.20;;
59416;SDS011;45222;52.458;20.914;2022-12-18T05:48:00;25.90;;;9.80;;
59416;SDS011;45222;52.458;20.914;2022-12-18T05:51:45;16.20;;;6.60;;
59416;SDS011;45222;52.458;20.914;2022-12-18T05:55:32;17.50;;;5.40;;
59416;SDS011;45222;52.458;20.914;2022-12-18T05:59:16;29.50;;;9.60;;
59416;SDS011;45222;52.458;20.914;2022-12-18T06:03:01;22.60;;;8.90;;
59416;SDS011;45222;52.458;20.914;2022-12-18T06:06:46;22.30;;;7.60;;
59416;SDS011;45222;52.458;20.914;2022-12-18T06:10:31;21.40;;;7.50;;
59416;SDS011;45222;52.458;20.914;2022-12-18T06:14:15;18.50;;;6.50;;
59416;SDS011;45222;52.458;20.914;2022-12-18T06:18:00;18.60;;;6.00;;
59416;SDS011;45222;52.458;20.914;2022-12-18T06:21:45;30.20;;;21.90;;
59416;SDS011;45222;52.458;20.914;2022-12-18T06:25:29;25.30;;;10.40;;
59416;SDS011;45222;52.458;20.914;2022-12-18T06:29:14;31.20;;;10.80;;
59416;SDS011;45222;52.458;20.914;2022-12-18T06:32:58;33.30;;;11.60;;
59416;SDS011;45222;52.458;20.914;2022-12-18T06:36:43;32.70;;;10.70;;
59416;SDS011;45222;52.458;20.914;2022-12-18T06:40:28;27.40;;;9.70;;
59416;SDS011;45222;52.458;20.914;2022-12-18T06:44:13;26.00;;;9.80;;
59416;SDS011;45222;52.458;20.914;2022-12-18T06:47:57;27.50;;;9.80;;
59416;SDS011;45222;52.458;20.914;2022-12-18T06:51:42;24.00;;;8.70;;
59416;SDS011;45222;52.458;20.914;2022-12-18T06:55:27;36.30;;;13.70;;
59416;SDS011;45222;52.458;20.914;2022-12-18T06:59:11;46.90;;;15.60;;
59416;SDS011;45222;52.458;20.914;2022-12-18T07:02:57;33.20;;;11.40;;
59416;SDS011;45222;52.458;20.914;2022-12-18T07:06:42;47.60;;;14.90;;
59416;SDS011;45222;52.458;20.914;2022-12-18T07:10:26;47.40;;;14.00;;
59416;SDS011;45222;52.458;20.914;2022-12-18T07:14:11;49.90;;;15.60;;
59416;SDS011;45222;52.458;20.914;2022-12-18T07:17:56;42.50;;;15.60;;
59416;SDS011;45222;52.458;20.914;2022-12-18T07:21:40;33.20;;;13.20;;
59416;SDS011;45222;52.458;20.914;2022-12-18T07:25:25;33.20;;;12.10;;
59416;SDS011;45222;52.458;20.914;2022-12-18T07:29:09;26.50;;;8.70;;
59416;SDS011;45222;52.458;20.914;2022-12-18T07:32:54;34.50;;;11.50;;
59416;SDS011;45222;52.458;20.914;2022-12-18T07:36:38;10.10;;;4.10;;
59416;SDS011;45222;52.458;20.914;2022-12-18T07:40:23;46.90;;;16.10;;
59416;SDS011;45222;52.458;20.914;2022-12-18T07:44:09;47.00;;;15.10;;
59416;SDS011;45222;52.458;20.914;2022-12-18T07:47:56;57.50;;;36.00;;
59416;SDS011;45222;52.458;20.914;2022-12-18T07:51:40;35.60;;;13.50;;
59416;SDS011;45222;52.458;20.914;2022-12-18T07:55:25;47.90;;;30.90;;
59416;SDS011;45222;52.458;20.914;2022-12-18T07:59:09;23.50;;;8.50;;
59416;SDS011;45222;52.458;20.914;2022-12-18T08:02:54;16.00;;;5.90;;
59416;SDS011;45222;52.458;20.914;2022-12-18T08:06:39;33.60;;;12.00;;
59416;SDS011;45222;52.458;20.914;2022-12-18T08:10:24;39.80;;;13.10;;
59416;SDS011;45222;52.458;20.914;2022-12-18T08:14:08;51.00;;;15.30;;
59416;SDS011;45222;52.458;20.914;2022-12-18T08:17:54;35.40;;;11.70;;
59416;SDS011;45222;52.458;20.914;2022-12-18T08:21:41;38.50;;;13.10;;
59416;SDS011;45222;52.458;20.914;2022-12-18T08:25:25;41.90;;;12.30;;
59416;SDS011;45222;52.458;20.914;2022-12-18T08:29:10;40.10;;;12.80;;
59416;SDS011;45222;52.458;20.914;2022-12-18T08:32:55;30.10;;;11.30;;
59416;SDS011;45222;52.458;20.914;2022-12-18T08:36:39;32.10;;;10.10;;
59416;SDS011;45222;52.458;20.914;2022-12-18T08:40:24;35.40;;;13.10;;
59416;SDS011;45222;52.458;20.914;2022-12-18T08:44:09;52.10;;;32.10;;
59416;SDS011;45222;52.458;20.914;2022-12-18T08:48:11;37.40;;;15.00;;
59416;SDS011;45222;52.458;20.914;2022-12-18T08:51:56;45.10;;;15.60;;
59416;SDS011;45222;52.458;20.914;2022-12-18T08:55:41;51.20;;;32.50;;
59416;SDS011;45222;52.458;20.914;2022-12-18T08:59:26;37.90;;;12.90;;
59416;SDS011;45222;52.458;20.914;2022-12-18T09:03:11;52.40;;;33.80;;
59416;SDS011;45222;52.458;20.914;2022-12-18T09:06:56;35.10;;;13.10;;
59416;SDS011;45222;52.458;20.914;2022-12-18T09:10:44;35.60;;;12.30;;
59416;SDS011;45222;52.458;20.914;2022-12-18T09:14:29;60.70;;;37.50;;
59416;SDS011;45222;52.458;20.914;2022-12-18T09:18:15;35.20;;;10.80;;
59416;SDS011;45222;52.458;20.914;2022-12-18T09:22:00;44.40;;;14.30;;
59416;SDS011;45222;52.458;20.914;2022-12-18T09:25:45;54.70;;;34.20;;
59416;SDS011;45222;52.458;20.914;2022-12-18T09:29:30;55.40;;;35.10;;
59416;SDS011;45222;52.458;20.914;2022-12-18T09:33:15;35.30;;;13.60;;
59416;SDS011;45222;52.458;20.914;2022-12-18T09:37:00;42.10;;;14.00;;
59416;SDS011;45222;52.458;20.914;2022-12-18T09:40:46;40.20;;;14.00;;
59416;SDS011;45222;52.458;20.914;2022-12-18T09:44:34;46.40;;;15.70;;
59416;SDS011;45222;52.458;20.914;2022-12-18T09:48:25;33.60;;;12.20;;
59416;SDS011;45222;52.458;20.914;2022-12-18T09:52:15;42.50;;;15.70;;
59416;SDS011;45222;52.458;20.914;2022-12-18T09:56:06;50.40;;;16.80;;
59416;SDS011;45222;52.458;20.914;2022-12-18T10:00:02;57.70;;;20.70;;
59416;SDS011;45222;52.458;20.914;2022-12-18T10:03:52;40.90;;;14.40;;
59416;SDS011;45222;52.458;20.914;2022-12-18T10:07:41;43.00;;;15.30;;
59416;SDS011;45222;52.458;20.914;2022-12-18T10:11:34;65.60;;;39.90;;
59416;SDS011;45222;52.458;20.914;2022-12-18T10:15:29;46.10;;;15.30;;
59416;SDS011;45222;52.458;20.914;2022-12-18T10:19:33;32.50;;;11.40;;
59416;SDS011;45222;52.458;20.914;2022-12-18T10:23:25;33.50;;;12.20;;
59416;SDS011;45222;52.458;20.914;2022-12-18T10:27:17;32.90;;;14.30;;
59416;SDS011;45222;52.458;20.914;2022-12-18T10:31:05;37.70;;;13.90;;
59416;SDS011;45222;52.458;20.914;2022-12-18T10:34:52;37.40;;;14.40;;
59416;SDS011;45222;52.458;20.914;2022-12-18T10:38:38;44.80;;;17.10;;
59416;SDS011;45222;52.458;20.914;2022-12-18T10:42:23;56.30;;;20.10;;
59416;SDS011;45222;52.458;20.914;2022-12-18T10:46:12;49.50;;;17.90;;
59416;SDS011;45222;52.458;20.914;2022-12-18T10:50:00;40.20;;;15.00;;
59416;SDS011;45222;52.458;20.914;2022-12-18T10:53:50;36.80;;;15.20;;
59416;SDS011;45222;52.458;20.914;2022-12-18T10:57:38;42.70;;;17.10;;
59416;SDS011;45222;52.458;20.914;2022-12-18T11:01:24;35.40;;;14.40;;
59416;SDS011;45222;52.458;20.914;2022-12-18T11:05:23;41.70;;;16.10;;
59416;SDS011;45222;52.458;20.914;2022-12-18T11:09:18;43.30;;;14.90;;
59416;SDS011;45222;52.458;20.914;2022-12-18T11:13:11;41.20;;;14.70;;
59416;SDS011;45222;52.458;20.914;2022-12-18T11:16:59;36.60;;;14.40;;
59416;SDS011;45222;52.458;20.914;2022-12-18T11:20:46;50.40;;;35.60;;
59416;SDS011;45222;52.458;20.914;2022-12-18T11:24:35;51.90;;;18.90;;
59416;SDS011;45222;52.458;20.914;2022-12-18T11:28:29;51.10;;;19.50;;
59416;SDS011;45222;52.458;20.914;2022-12-18T11:32:33;44.10;;;16.70;;
59416;SDS011;45222;52.458;20.914;2022-12-18T11:36:30;44.90;;;31.60;;
59416;SDS011;45222;52.458;20.914;2022-12-18T11:40:20;37.50;;;15.10;;
59416;SDS011;45222;52.458;20.914;2022-12-18T11:44:11;45.30;;;15.60;;
59416;SDS011;45222;52.458;20.914;2022-12-18T11:48:02;36.70;;;15.80;;
59416;SDS011;45222;52.458;20.914;2022-12-18T11:51:53;48.40;;;34.00;;
59416;SDS011;45222;52.458;20.914;2022-12-18T11:55:47;48.80;;;33.70;;
59416;SDS011;45222;52.458;20.914;2022-12-18T11:59:39;48.50;;;33.70;;
59416;SDS011;45222;52.458;20.914;2022-12-18T12:03:42;41.30;;;17.30;;
59416;SDS011;45222;52.458;20.914;2022-12-18T12:07:42;42.40;;;29.60;;
59416;SDS011;45222;52.458;20.914;2022-12-18T12:11:34;36.20;;;13.90;;
59416;SDS011;45222;52.458;20.914;2022-12-18T12:15:28;41.20;;;17.40;;
59416;SDS011;45222;52.458;20.914;2022-12-18T12:19:29;57.60;;;39.80;;
59416;SDS011;45222;52.458;20.914;2022-12-18T12:23:26;50.10;;;20.70;;
59416;SDS011;45222;52.458;20.914;2022-12-18T12:27:29;47.80;;;19.80;;
59416;SDS011;45222;52.458;20.914;2022-12-18T12:31:45;43.90;;;17.50;;
59416;SDS011;45222;52.458;20.914;2022-12-18T12:35:44;33.30;;;13.40;;
59416;SDS011;45222;52.458;20.914;2022-12-18T12:39:36;46.40;;;32.60;;
59416;SDS011;45222;52.458;20.914;2022-12-18T12:43:25;45.00;;;29.80;;
59416;SDS011;45222;52.458;20.914;2022-12-18T12:47:18;36.00;;;13.00;;
59416;SDS011;45222;52.458;20.914;2022-12-18T12:51:08;52.70;;;32.00;;
59416;SDS011;45222;52.458;20.914;2022-12-18T12:54:57;33.60;;;13.80;;
59416;SDS011;45222;52.458;20.914;2022-12-18T12:58:46;34.90;;;13.80;;
59416;SDS011;45222;52.458;20.914;2022-12-18T13:02:42;46.00;;;31.20;;
59416;SDS011;45222;52.458;20.914;2022-12-18T13:06:35;34.40;;;11.50;;
59416;SDS011;45222;52.458;20.914;2022-12-18T13:10:30;29.10;;;11.10;;
59416;SDS011;45222;52.458;20.914;2022-12-18T13:14:23;32.80;;;12.30;;
59416;SDS011;45222;52.458;20.914;2022-12-18T13:18:14;26.90;;;8.90;;
59416;SDS011;45222;52.458;20.914;2022-12-18T13:22:02;33.90;;;12.90;;
59416;SDS011;45222;52.458;20.914;2022-12-18T13:25:46;33.10;;;10.50;;
59416;SDS011;45222;52.458;20.914;2022-12-18T13:29:41;40.70;;;13.50;;
59416;SDS011;45222;52.458;20.914;2022-12-18T13:33:39;31.30;;;10.40;;
59416;SDS011;45222;52.458;20.914;2022-12-18T13:37:42;40.30;;;15.40;;
59416;SDS011;45222;52.458;20.914;2022-12-18T13:41:27;43.40;;;15.00;;
59416;SDS011;45222;52.458;20.914;2022-12-18T13:49:27;40.50;;;13.60;;
59416;SDS011;45222;52.458;20.914;2022-12-18T13:53:21;42.10;;;16.40;;
59416;SDS011;45222;52.458;20.914;2022-12-18T13:57:23;41.00;;;17.20;;
59416;SDS011;45222;52.458;20.914;2022-12-18T14:01:21;38.90;;;14.80;;
59416;SDS011;45222;52.458;20.914;2022-12-18T14:05:20;34.70;;;11.90;;
59416;SDS011;45222;52.458;20.914;2022-12-18T14:09:06;34.60;;;12.20;;
59416;SDS011;45222;52.458;20.914;2022-12-18T14:12:54;56.60;;;38.20;;
59416;SDS011;45222;52.458;20.914;2022-12-18T14:16:42;47.30;;;16.80;;
59416;SDS011;45222;52.458;20.914;2022-12-18T14:20:27;54.70;;;36.10;;
59416;SDS011;45222;52.458;20.914;2022-12-18T14:24:15;42.10;;;16.20;;
59416;SDS011;45222;52.458;20.914;2022-12-18T14:28:02;42.20;;;15.10;;
59416;SDS011;45222;52.458;20.914;2022-12-18T14:32:10;57.70;;;38.30;;
59416;SDS011;45222;52.458;20.914;2022-12-18T14:35:59;44.30;;;15.70;;
59416;SDS011;45222;52.458;20.914;2022-12-18T14:39:55;40.90;;;14.50;;
59416;SDS011;45222;52.458;20.914;2022-12-18T14:43:41;58.70;;;38.90;;
59416;SDS011;45222;52.458;20.914;2022-12-18T14:47:27;37.90;;;14.20;;
59416;SDS011;45222;52.458;20.914;2022-12-18T14:51:15;53.60;;;37.60;;
59416;SDS011;45222;52.458;20.914;2022-12-18T14:58:46;42.90;;;15.50;;
59416;SDS011;45222;52.458;20.914;2022-12-18T15:02:34;39.00;;;13.70;;
59416;SDS011;45222;52.458;20.914;2022-12-18T15:06:24;37.30;;;15.40;;
59416;SDS011;45222;52.458;20.914;2022-12-18T15:10:12;32.60;;;10.70;;
59416;SDS011;45222;52.458;20.914;2022-12-18T15:13:59;37.60;;;13.70;;
59416;SDS011;45222;52.458;20.914;2022-12-18T15:18:05;33.40;;;10.40;;
59416;SDS011;45222;52.458;20.914;2022-12-18T15:21:57;29.20;;;10.80;;
59416;SDS011;45222;52.458;20.914;2022-12-18T15:25:42;39.20;;;14.30;;
59416;SDS011;45222;52.458;20.914;2022-12-18T15:29:27;50.70;;;18.00;;
59416;SDS011;45222;52.458;20.914;2022-12-18T15:33:22;47.60;;;15.90;;
59416;SDS011;45222;52.458;20.914;2022-12-18T15:37:08;61.80;;;37.80;;
59416;SDS011;45222;52.458;20.914;2022-12-18T15:40:53;40.80;;;13.80;;
59416;SDS011;45222;52.458;20.914;2022-12-18T15:44:37;32.40;;;11.80;;
59416;SDS011;45222;52.458;20.914;2022-12-18T15:48:23;29.00;;;10.40;;
59416;SDS011;45222;52.458;20.914;2022-12-18T15:52:08;37.20;;;11.60;;
59416;SDS011;45222;52.458;20.914;2022-12-18T15:55:57;40.50;;;13.10;;
59416;SDS011;45222;52.458;20.914;2022-12-18T16:00:00;36.40;;;12.20;;
59416;SDS011;45222;52.458;20.914;2022-12-18T16:03:45;38.40;;;12.00;;
59416;SDS011;45222;52.458;20.914;2022-12-18T16:07:30;49.80;;;16.40;;
59416;SDS011;45222;52.458;20.914;2022-12-18T16:11:20;44.40;;;14.00;;
59416;SDS011;45222;52.458;20.914;2022-12-18T16:15:21;46.30;;;14.90;;
59416;SDS011;45222;52.458;20.914;2022-12-18T16:19:05;36.70;;;12.40;;
59416;SDS011;45222;52.458;20.914;2022-12-18T16:22:50;36.40;;;11.00;;
59416;SDS011;45222;52.458;20.914;2022-12-18T16:26:36;34.70;;;10.50;;
59416;SDS011;45222;52.458;20.914;2022-12-18T16:30:21;59.70;;;37.80;;
59416;SDS011;45222;52.458;20.914;2022-12-18T16:34:12;50.00;;;17.30;;
59416;SDS011;45222;52.458;20.914;2022-12-18T16:38:01;63.40;;;19.20;;
59416;SDS011;45222;52.458;20.914;2022-12-18T16:41:45;79.40;;;23.80;;
59416;SDS011;45222;52.458;20.914;2022-12-18T16:45:30;47.40;;;15.40;;
59416;SDS011;45222;52.458;20.914;2022-12-18T16:49:16;39.70;;;12.30;;
59416;SDS011;45222;52.458;20.914;2022-12-18T16:53:01;40.70;;;11.30;;
59416;SDS011;45222;52.458;20.914;2022-12-18T16:56:46;39.70;;;13.50;;
59416;SDS011;45222;52.458;20.914;2022-12-18T17:00:32;29.20;;;10.00;;
59416;SDS011;45222;52.458;20.914;2022-12-18T17:04:16;31.90;;;10.90;;
59416;SDS011;45222;52.458;20.914;2022-12-18T17:08:01;36.70;;;13.00;;
59416;SDS011;45222;52.458;20.914;2022-12-18T17:11:45;50.80;;;16.40;;
59416;SDS011;45222;52.458;20.914;2022-12-18T17:15:30;58.90;;;18.30;;
59416;SDS011;45222;52.458;20.914;2022-12-18T17:19:18;42.60;;;15.50;;
59416;SDS011;45222;52.458;20.914;2022-12-18T17:23:03;47.00;;;17.40;;
59416;SDS011;45222;52.458;20.914;2022-12-18T17:26:48;41.20;;;15.80;;
59416;SDS011;45222;52.458;20.914;2022-12-18T17:30:33;37.00;;;14.10;;
59416;SDS011;45222;52.458;20.914;2022-12-18T17:34:17;37.50;;;11.20;;
59416;SDS011;45222;52.458;20.914;2022-12-18T17:38:04;29.50;;;10.20;;
59416;SDS011;45222;52.458;20.914;2022-12-18T17:41:49;35.70;;;11.90;;
59416;SDS011;45222;52.458;20.914;2022-12-18T17:45:34;45.80;;;16.00;;
59416;SDS011;45222;52.458;20.914;2022-12-18T17:49:19;47.80;;;14.40;;
59416;SDS011;45222;52.458;20.914;2022-12-18T17:53:04;49.60;;;19.20;;
59416;SDS011;45222;52.458;20.914;2022-12-18T17:56:49;39.80;;;15.60;;
59416;SDS011;45222;52.458;20.914;2022-12-18T18:00:34;48.40;;;17.80;;
59416;SDS011;45222;52.458;20.914;2022-12-18T18:04:18;46.70;;;18.20;;
59416;SDS011;45222;52.458;20.914;2022-12-18T18:08:04;41.10;;;14.90;;
59416;SDS011;45222;52.458;20.914;2022-12-18T18:11:49;41.70;;;15.10;;
59416;SDS011;45222;52.458;20.914;2022-12-18T18:15:54;43.50;;;14.90;;
59416;SDS011;45222;52.458;20.914;2022-12-18T18:19:40;40.20;;;16.10;;
59416;SDS011;45222;52.458;20.914;2022-12-18T18:23:25;50.80;;;20.30;;
59416;SDS011;45222;52.458;20.914;2022-12-18T18:27:10;29.50;;;12.00;;
59416;SDS011;45222;52.458;20.914;2022-12-18T18:30:56;52.80;;;36.90;;
59416;SDS011;45222;52.458;20.914;2022-12-18T18:34:40;29.90;;;11.50;;
59416;SDS011;45222;52.458;20.914;2022-12-18T18:38:25;40.20;;;16.00;;
59416;SDS011;45222;52.458;20.914;2022-12-18T18:42:11;44.40;;;16.70;;
59416;SDS011;45222;52.458;20.914;2022-12-18T18:45:56;59.00;;;41.10;;
59416;SDS011;45222;52.458;20.914;2022-12-18T18:49:41;43.90;;;15.50;;
59416;SDS011;45222;52.458;20.914;2022-12-18T18:53:27;26.00;;;10.20;;
59416;SDS011;45222;52.458;20.914;2022-12-18T18:57:12;34.40;;;13.20;;
59416;SDS011;45222;52.458;20.914;2022-12-18T19:00:57;59.20;;;21.40;;
59416;SDS011;45222;52.458;20.914;2022-12-18T19:04:45;61.60;;;22.30;;
59416;SDS011;45222;52.458;20.914;2022-12-18T19:08:32;45.70;;;18.50;;
59416;SDS011;45222;52.458;20.914;2022-12-18T19:12:18;45.00;;;19.20;;
59416;SDS011;45222;52.458;20.914;2022-12-18T19:16:22;46.30;;;19.30;;
59416;SDS011;45222;52.458;20.914;2022-12-18T19:20:08;42.80;;;16.20;;
59416;SDS011;45222;52.458;20.914;2022-12-18T19:23:53;48.60;;;17.20;;
59416;SDS011;45222;52.458;20.914;2022-12-18T19:27:38;45.80;;;16.10;;
59416;SDS011;45222;52.458;20.914;2022-12-18T19:31:23;37.40;;;12.70;;
59416;SDS011;45222;52.458;20.914;2022-12-18T19:35:08;35.40;;;12.90;;
59416;SDS011;45222;52.458;20.914;2022-12-18T19:38:54;25.20;;;9.40;;
59416;SDS011;45222;52.458;20.914;2022-12-18T19:42:40;41.70;;;15.20;;
59416;SDS011;45222;52.458;20.914;2022-12-18T19:46:25;25.40;;;9.80;;
59416;SDS011;45222;52.458;20.914;2022-12-18T19:50:10;43.60;;;14.70;;
59416;SDS011;45222;52.458;20.914;2022-12-18T19:53:55;41.30;;;28.90;;
59416;SDS011;45222;52.458;20.914;2022-12-18T19:57:41;36.60;;;12.90;;
59416;SDS011;45222;52.458;20.914;2022-12-18T20:01:26;36.20;;;12.30;;
59416;SDS011;45222;52.458;20.914;2022-12-18T20:05:11;42.30;;;15.50;;
59416;SDS011;45222;52.458;20.914;2022-12-18T20:08:57;45.40;;;14.90;;
59416;SDS011;45222;52.458;20.914;2022-12-18T20:12:43;38.70;;;12.30;;
59416;SDS011;45222;52.458;20.914;2022-12-18T20:16:28;38.20;;;14.00;;
59416;SDS011;45222;52.458;20.914;2022-12-18T20:20:13;42.50;;;14.70;;
59416;SDS011;45222;52.458;20.914;2022-12-18T20:23:57;36.10;;;13.70;;
59416;SDS011;45222;52.458;20.914;2022-12-18T20:27:43;36.00;;;13.40;;
59416;SDS011;45222;52.458;20.914;2022-12-18T20:31:28;43.30;;;14.10;;
59416;SDS011;45222;52.458;20.914;2022-12-18T20:35:13;20.60;;;8.60;;
59416;SDS011;45222;52.458;20.914;2022-12-18T20:38:57;50.90;;;17.10;;
59416;SDS011;45222;52.458;20.914;2022-12-18T20:42:42;54.90;;;17.90;;
59416;SDS011;45222;52.458;20.914;2022-12-18T20:46:26;46.90;;;16.60;;
59416;SDS011;45222;52.458;20.914;2022-12-18T20:50:11;35.80;;;13.70;;
59416;SDS011;45222;52.458;20.914;2022-12-18T20:53:56;36.30;;;14.30;;
59416;SDS011;45222;52.458;20.914;2022-12-18T20:57:41;33.60;;;11.90;;
59416;SDS011;45222;52.458;20.914;2022-12-18T21:01:28;37.70;;;14.20;;
59416;SDS011;45222;52.458;20.914;2022-12-18T21:05:13;29.70;;;11.60;;
59416;SDS011;45222;52.458;20.914;2022-12-18T21:08:57;23.20;;;8.50;;
59416;SDS011;45222;52.458;20.914;2022-12-18T21:12:42;18.30;;;6.60;;
59416;SDS011;45222;52.458;20.914;2022-12-18T21:16:31;29.60;;;11.50;;
59416;SDS011;45222;52.458;20.914;2022-12-18T21:20:16;30.90;;;11.70;;
59416;SDS011;45222;52.458;20.914;2022-12-18T21:24:01;33.10;;;13.70;;
59416;SDS011;45222;52.458;20.914;2022-12-18T21:27:46;31.90;;;12.00;;
59416;SDS011;45222;52.458;20.914;2022-12-18T21:31:31;40.50;;;13.60;;
59416;SDS011;45222;52.458;20.914;2022-12-18T21:35:17;28.80;;;10.90;;
59416;SDS011;45222;52.458;20.914;2022-12-18T21:39:02;33.50;;;11.10;;
59416;SDS011;45222;52.458;20.914;2022-12-18T21:42:46;33.60;;;11.50;;
59416;SDS011;45222;52.458;20.914;2022-12-18T21:46:55;32.20;;;10.40;;
59416;SDS011;45222;52.458;20.914;2022-12-18T21:50:40;31.40;;;11.00;;
59416;SDS011;45222;52.458;20.914;2022-12-18T21:54:25;33.30;;;12.10;;
59416;SDS011;45222;52.458;20.914;2022-12-18T21:58:10;27.00;;;9.10;;
59416;SDS011;45222;52.458;20.914;2022-12-18T22:01:56;24.40;;;8.80;;
59416;SDS011;45222;52.458;20.914;2022-12-18T22:09:28;42.60;;;15.30;;
59416;SDS011;45222;52.458;20.914;2022-12-18T22:13:13;49.70;;;14.70;;
59416;SDS011;45222;52.458;20.914;2022-12-18T22:16:57;48.80;;;17.30;;
59416;SDS011;45222;52.458;20.914;2022-12-18T22:20:43;29.20;;;11.90;;